Terminal Aerodrome Forecast
Issued by NWS

Home | Current Version | Previous Version | Text Only | Print | Product List | Glossary On
Versions: 1 2 3 4 5 6 7 8 9 10 11 12 13 14 15 16 17 18 19 20 21 22 23 24 25 26 27 28 29 30 31 32 33 34 35 36 37 38 39 40 41 42 43 44 45 46 47 48 49
000
FTUS45 KBOU 311804 AAB
TAFBJC
TAF AMD
KBJC 311804Z 3118/0118 VRB05KT P6SM BKN050
     FM311900 03007KT P6SM VCTS BKN060CB BKN120
     FM010200 31005KT P6SM SCT060 BKN120
     FM010400 29005KT P6SM FEW120=

USA.gov is the U.S. government's official web portal to all federal, state and local government web resources and services.